sensor_id;sensor_type;location;lat;lon;timestamp;temperature;humidity
21580;DHT22;10951;59.656;9.666;2023-04-25T00:02:12;1.40;99.90
21580;DHT22;10951;59.656;9.666;2023-04-25T00:04:39;1.40;99.90
21580;DHT22;10951;59.656;9.666;2023-04-25T00:07:06;1.40;99.90
21580;DHT22;10951;59.656;9.666;2023-04-25T00:09:33;1.50;99.90
21580;DHT22;10951;59.656;9.666;2023-04-25T00:12:00;1.50;99.90
21580;DHT22;10951;59.656;9.666;2023-04-25T00:14:28;1.50;99.90
21580;DHT22;10951;59.656;9.666;2023-04-25T00:16:55;1.50;99.90
21580;DHT22;10951;59.656;9.666;2023-04-25T00:19:22;1.50;99.90
21580;DHT22;10951;59.656;9.666;2023-04-25T00:21:49;1.50;99.90
21580;DHT22;10951;59.656;9.666;2023-04-25T00:24:16;1.50;99.90
21580;DHT22;10951;59.656;9.666;2023-04-25T00:26:43;1.50;99.90
21580;DHT22;10951;59.656;9.666;2023-04-25T00:29:10;1.40;99.90
21580;DHT22;10951;59.656;9.666;2023-04-25T00:31:37;1.50;99.90
21580;DHT22;10951;59.656;9.666;2023-04-25T00:34:05;1.50;99.90
21580;DHT22;10951;59.656;9.666;2023-04-25T00:36:32;1.40;99.90
21580;DHT22;10951;59.656;9.666;2023-04-25T00:38:59;1.40;99.90
21580;DHT22;10951;59.656;9.666;2023-04-25T00:41:26;1.40;99.90
21580;DHT22;10951;59.656;9.666;2023-04-25T00:43:53;1.40;99.90
21580;DHT22;10951;59.656;9.666;2023-04-25T00:46:21;1.40;99.90
21580;DHT22;10951;59.656;9.666;2023-04-25T00:48:47;1.40;99.90
21580;DHT22;10951;59.656;9.666;2023-04-25T00:51:15;1.40;99.90
21580;DHT22;10951;59.656;9.666;2023-04-25T00:53:43;1.40;99.90
21580;DHT22;10951;59.656;9.666;2023-04-25T00:56:11;1.40;99.90
21580;DHT22;10951;59.656;9.666;2023-04-25T00:58:38;1.30;99.90
21580;DHT22;10951;59.656;9.666;2023-04-25T01:01:06;1.40;99.90
21580;DHT22;10951;59.656;9.666;2023-04-25T01:03:34;1.40;99.90
21580;DHT22;10951;59.656;9.666;2023-04-25T01:06:08;1.50;99.90
21580;DHT22;10951;59.656;9.666;2023-04-25T01:08:37;1.50;99.90
21580;DHT22;10951;59.656;9.666;2023-04-25T01:11:04;1.40;99.90
21580;DHT22;10951;59.656;9.666;2023-04-25T01:13:32;1.40;99.90
21580;DHT22;10951;59.656;9.666;2023-04-25T01:15:59;1.40;99.90
21580;DHT22;10951;59.656;9.666;2023-04-25T01:18:26;1.40;99.90
21580;DHT22;10951;59.656;9.666;2023-04-25T01:20:54;1.50;99.90
21580;DHT22;10951;59.656;9.666;2023-04-25T01:23:21;1.50;99.90
21580;DHT22;10951;59.656;9.666;2023-04-25T01:25:49;1.50;99.90
21580;DHT22;10951;59.656;9.666;2023-04-25T01:28:16;1.50;99.90
21580;DHT22;10951;59.656;9.666;2023-04-25T01:30:43;1.50;99.90
21580;DHT22;10951;59.656;9.666;2023-04-25T01:33:10;1.50;99.90
21580;DHT22;10951;59.656;9.666;2023-04-25T01:35:37;1.50;99.90
21580;DHT22;10951;59.656;9.666;2023-04-25T01:38:04;1.50;99.90
21580;DHT22;10951;59.656;9.666;2023-04-25T01:40:32;1.50;99.90
21580;DHT22;10951;59.656;9.666;2023-04-25T01:43:00;1.50;99.90
21580;DHT22;10951;59.656;9.666;2023-04-25T01:45:27;1.50;99.90
21580;DHT22;10951;59.656;9.666;2023-04-25T01:47:53;1.50;99.90
21580;DHT22;10951;59.656;9.666;2023-04-25T01:50:20;1.50;99.90
21580;DHT22;10951;59.656;9.666;2023-04-25T01:52:48;1.50;99.90
21580;DHT22;10951;59.656;9.666;2023-04-25T01:55:15;1.40;99.90
21580;DHT22;10951;59.656;9.666;2023-04-25T01:57:52;1.40;99.90
21580;DHT22;10951;59.656;9.666;2023-04-25T02:00:24;1.40;99.90
21580;DHT22;10951;59.656;9.666;2023-04-25T02:02:51;1.40;99.90
21580;DHT22;10951;59.656;9.666;2023-04-25T02:05:26;1.40;99.90
21580;DHT22;10951;59.656;9.666;2023-04-25T02:07:53;1.40;99.90
21580;DHT22;10951;59.656;9.666;2023-04-25T02:10:20;1.40;99.90
21580;DHT22;10951;59.656;9.666;2023-04-25T02:13:24;1.40;99.90
21580;DHT22;10951;59.656;9.666;2023-04-25T02:16:10;1.40;99.90
21580;DHT22;10951;59.656;9.666;2023-04-25T02:18:38;1.40;99.90
21580;DHT22;10951;59.656;9.666;2023-04-25T02:21:06;1.40;99.90
21580;DHT22;10951;59.656;9.666;2023-04-25T02:23:33;1.40;99.90
21580;DHT22;10951;59.656;9.666;2023-04-25T02:25:59;1.40;99.90
21580;DHT22;10951;59.656;9.666;2023-04-25T02:28:26;1.40;99.90
21580;DHT22;10951;59.656;9.666;2023-04-25T02:30:53;1.50;99.90
21580;DHT22;10951;59.656;9.666;2023-04-25T02:33:20;1.50;99.90
21580;DHT22;10951;59.656;9.666;2023-04-25T02:35:47;1.50;99.90
21580;DHT22;10951;59.656;9.666;2023-04-25T02:38:14;1.50;99.90
21580;DHT22;10951;59.656;9.666;2023-04-25T02:40:41;1.50;99.90
21580;DHT22;10951;59.656;9.666;2023-04-25T02:43:08;1.50;99.90
21580;DHT22;10951;59.656;9.666;2023-04-25T02:45:35;1.50;99.90
21580;DHT22;10951;59.656;9.666;2023-04-25T02:48:02;1.50;99.90
21580;DHT22;10951;59.656;9.666;2023-04-25T02:50:31;1.50;99.90
21580;DHT22;10951;59.656;9.666;2023-04-25T02:52:58;1.50;99.90
21580;DHT22;10951;59.656;9.666;2023-04-25T02:55:31;1.50;99.90
21580;DHT22;10951;59.656;9.666;2023-04-25T02:58:00;1.50;99.90
21580;DHT22;10951;59.656;9.666;2023-04-25T03:00:43;1.50;99.90
21580;DHT22;10951;59.656;9.666;2023-04-25T03:03:10;1.50;99.90
21580;DHT22;10951;59.656;9.666;2023-04-25T03:05:37;1.50;99.90
21580;DHT22;10951;59.656;9.666;2023-04-25T03:08:04;1.50;99.90
21580;DHT22;10951;59.656;9.666;2023-04-25T03:10:36;1.50;99.90
21580;DHT22;10951;59.656;9.666;2023-04-25T03:13:06;1.50;99.90
21580;DHT22;10951;59.656;9.666;2023-04-25T03:15:33;1.50;99.90
21580;DHT22;10951;59.656;9.666;2023-04-25T03:18:00;1.40;99.90
21580;DHT22;10951;59.656;9.666;2023-04-25T03:20:27;1.50;99.90
21580;DHT22;10951;59.656;9.666;2023-04-25T03:22:54;1.40;99.90
21580;DHT22;10951;59.656;9.666;2023-04-25T03:25:21;1.40;99.90
21580;DHT22;10951;59.656;9.666;2023-04-25T03:27:48;1.40;99.90
21580;DHT22;10951;59.656;9.666;2023-04-25T03:30:15;1.40;99.90
21580;DHT22;10951;59.656;9.666;2023-04-25T03:32:43;1.40;99.90
21580;DHT22;10951;59.656;9.666;2023-04-25T03:35:14;1.40;99.90
21580;DHT22;10951;59.656;9.666;2023-04-25T03:37:41;1.40;99.90
21580;DHT22;10951;59.656;9.666;2023-04-25T03:40:16;1.40;99.90
21580;DHT22;10951;59.656;9.666;2023-04-25T03:43:04;1.40;99.90
21580;DHT22;10951;59.656;9.666;2023-04-25T03:45:32;1.40;99.90
21580;DHT22;10951;59.656;9.666;2023-04-25T03:47:59;1.40;99.90
21580;DHT22;10951;59.656;9.666;2023-04-25T03:50:28;1.40;99.90
21580;DHT22;10951;59.656;9.666;2023-04-25T03:52:55;1.40;99.90
21580;DHT22;10951;59.656;9.666;2023-04-25T03:55:24;1.40;99.90
21580;DHT22;10951;59.656;9.666;2023-04-25T03:57:51;1.40;99.90
21580;DHT22;10951;59.656;9.666;2023-04-25T04:00:18;1.40;99.90
21580;DHT22;10951;59.656;9.666;2023-04-25T04:02:44;1.40;99.90
21580;DHT22;10951;59.656;9.666;2023-04-25T04:05:12;1.40;99.90
21580;DHT22;10951;59.656;9.666;2023-04-25T04:07:46;1.40;99.90
21580;DHT22;10951;59.656;9.666;2023-04-25T04:10:13;1.40;99.90
21580;DHT22;10951;59.656;9.666;2023-04-25T04:12:40;1.40;99.90
21580;DHT22;10951;59.656;9.666;2023-04-25T04:15:07;1.40;99.90
21580;DHT22;10951;59.656;9.666;2023-04-25T04:17:36;1.40;99.90
21580;DHT22;10951;59.656;9.666;2023-04-25T04:20:03;1.40;99.90
21580;DHT22;10951;59.656;9.666;2023-04-25T04:22:31;1.40;99.90
21580;DHT22;10951;59.656;9.666;2023-04-25T04:25:02;1.40;99.90
21580;DHT22;10951;59.656;9.666;2023-04-25T04:27:48;1.40;99.90
21580;DHT22;10951;59.656;9.666;2023-04-25T04:30:26;1.40;99.90
21580;DHT22;10951;59.656;9.666;2023-04-25T04:32:58;1.40;99.90
21580;DHT22;10951;59.656;9.666;2023-04-25T04:35:26;1.40;99.90
21580;DHT22;10951;59.656;9.666;2023-04-25T04:37:53;1.40;99.90
21580;DHT22;10951;59.656;9.666;2023-04-25T04:40:20;1.40;99.90
21580;DHT22;10951;59.656;9.666;2023-04-25T04:42:57;1.40;99.90
21580;DHT22;10951;59.656;9.666;2023-04-25T04:45:44;1.30;99.90
21580;DHT22;10951;59.656;9.666;2023-04-25T04:48:23;1.30;99.90
21580;DHT22;10951;59.656;9.666;2023-04-25T04:51:16;1.40;99.90
21580;DHT22;10951;59.656;9.666;2023-04-25T04:53:53;1.40;99.90
21580;DHT22;10951;59.656;9.666;2023-04-25T04:56:29;1.30;99.90
21580;DHT22;10951;59.656;9.666;2023-04-25T04:59:16;1.30;99.90
21580;DHT22;10951;59.656;9.666;2023-04-25T05:01:56;1.30;99.90
21580;DHT22;10951;59.656;9.666;2023-04-25T05:04:42;1.30;99.90
21580;DHT22;10951;59.656;9.666;2023-04-25T05:07:26;1.40;99.90
21580;DHT22;10951;59.656;9.666;2023-04-25T05:10:13;1.40;99.90
21580;DHT22;10951;59.656;9.666;2023-04-25T05:13:00;1.40;99.90
21580;DHT22;10951;59.656;9.666;2023-04-25T05:15:45;1.40;99.90
21580;DHT22;10951;59.656;9.666;2023-04-25T05:18:41;1.40;99.90
21580;DHT22;10951;59.656;9.666;2023-04-25T05:21:26;1.40;99.90
21580;DHT22;10951;59.656;9.666;2023-04-25T05:24:17;1.40;99.90
21580;DHT22;10951;59.656;9.666;2023-04-25T05:27:02;1.40;99.90
21580;DHT22;10951;59.656;9.666;2023-04-25T05:29:58;1.40;99.90
21580;DHT22;10951;59.656;9.666;2023-04-25T05:32:31;1.40;99.90
21580;DHT22;10951;59.656;9.666;2023-04-25T05:34:59;1.40;99.90
21580;DHT22;10951;59.656;9.666;2023-04-25T05:37:31;1.40;99.90
21580;DHT22;10951;59.656;9.666;2023-04-25T05:40:19;1.50;99.90
21580;DHT22;10951;59.656;9.666;2023-04-25T05:43:06;1.40;99.90
21580;DHT22;10951;59.656;9.666;2023-04-25T05:45:57;1.40;99.90
21580;DHT22;10951;59.656;9.666;2023-04-25T05:48:53;1.40;99.90
21580;DHT22;10951;59.656;9.666;2023-04-25T05:51:37;1.40;99.90
21580;DHT22;10951;59.656;9.666;2023-04-25T05:54:22;1.40;99.90
21580;DHT22;10951;59.656;9.666;2023-04-25T05:56:49;1.40;99.90
21580;DHT22;10951;59.656;9.666;2023-04-25T05:59:16;1.40;99.90
21580;DHT22;10951;59.656;9.666;2023-04-25T06:01:44;1.40;99.90
21580;DHT22;10951;59.656;9.666;2023-04-25T06:04:11;1.40;99.90
21580;DHT22;10951;59.656;9.666;2023-04-25T06:06:39;1.40;99.90
21580;DHT22;10951;59.656;9.666;2023-04-25T06:09:05;1.40;99.90
21580;DHT22;10951;59.656;9.666;2023-04-25T06:11:32;1.40;99.90
21580;DHT22;10951;59.656;9.666;2023-04-25T06:14:00;1.40;99.90
21580;DHT22;10951;59.656;9.666;2023-04-25T06:16:27;1.40;99.90
21580;DHT22;10951;59.656;9.666;2023-04-25T06:18:54;1.40;99.90
21580;DHT22;10951;59.656;9.666;2023-04-25T06:21:21;1.40;99.90
21580;DHT22;10951;59.656;9.666;2023-04-25T06:23:50;1.40;99.90
21580;DHT22;10951;59.656;9.666;2023-04-25T06:26:21;1.40;99.90
21580;DHT22;10951;59.656;9.666;2023-04-25T06:28:48;1.50;99.90
21580;DHT22;10951;59.656;9.666;2023-04-25T06:31:15;1.50;99.90
21580;DHT22;10951;59.656;9.666;2023-04-25T06:33:43;1.50;99.90
21580;DHT22;10951;59.656;9.666;2023-04-25T06:36:10;1.50;99.90
21580;DHT22;10951;59.656;9.666;2023-04-25T06:38:38;1.50;99.90
21580;DHT22;10951;59.656;9.666;2023-04-25T06:41:05;1.50;99.90
21580;DHT22;10951;59.656;9.666;2023-04-25T06:43:34;1.50;99.90
21580;DHT22;10951;59.656;9.666;2023-04-25T06:46:10;1.50;99.90
21580;DHT22;10951;59.656;9.666;2023-04-25T06:48:42;1.50;99.90
21580;DHT22;10951;59.656;9.666;2023-04-25T06:51:10;1.50;99.90
21580;DHT22;10951;59.656;9.666;2023-04-25T06:53:40;1.50;99.90
21580;DHT22;10951;59.656;9.666;2023-04-25T06:56:10;1.50;99.90
21580;DHT22;10951;59.656;9.666;2023-04-25T06:58:54;1.50;99.90
21580;DHT22;10951;59.656;9.666;2023-04-25T07:01:28;1.50;99.90
21580;DHT22;10951;59.656;9.666;2023-04-25T07:03:58;1.50;99.90
21580;DHT22;10951;59.656;9.666;2023-04-25T07:06:25;1.60;99.90
21580;DHT22;10951;59.656;9.666;2023-04-25T07:08:54;1.60;99.90
21580;DHT22;10951;59.656;9.666;2023-04-25T07:11:22;1.60;99.90
21580;DHT22;10951;59.656;9.666;2023-04-25T07:13:49;1.70;99.90
21580;DHT22;10951;59.656;9.666;2023-04-25T07:16:16;1.60;99.90
21580;DHT22;10951;59.656;9.666;2023-04-25T07:18:43;1.60;99.90
21580;DHT22;10951;59.656;9.666;2023-04-25T07:21:11;1.60;99.90
21580;DHT22;10951;59.656;9.666;2023-04-25T07:23:39;1.70;99.90
21580;DHT22;10951;59.656;9.666;2023-04-25T07:26:11;1.70;99.90
21580;DHT22;10951;59.656;9.666;2023-04-25T07:28:52;1.70;99.90
21580;DHT22;10951;59.656;9.666;2023-04-25T07:31:19;1.80;99.90
21580;DHT22;10951;59.656;9.666;2023-04-25T07:33:46;1.90;99.90
21580;DHT22;10951;59.656;9.666;2023-04-25T07:36:13;1.90;99.90
21580;DHT22;10951;59.656;9.666;2023-04-25T07:38:42;1.90;99.90
21580;DHT22;10951;59.656;9.666;2023-04-25T07:41:10;1.80;99.90
21580;DHT22;10951;59.656;9.666;2023-04-25T07:43:37;1.80;99.90
21580;DHT22;10951;59.656;9.666;2023-04-25T07:46:04;1.80;99.90
21580;DHT22;10951;59.656;9.666;2023-04-25T07:48:33;1.90;99.90
21580;DHT22;10951;59.656;9.666;2023-04-25T07:51:01;1.90;99.90
21580;DHT22;10951;59.656;9.666;2023-04-25T07:53:28;2.00;99.90
21580;DHT22;10951;59.656;9.666;2023-04-25T07:56:00;2.00;99.90
21580;DHT22;10951;59.656;9.666;2023-04-25T07:58:31;2.00;99.90
21580;DHT22;10951;59.656;9.666;2023-04-25T08:01:01;2.00;99.90
21580;DHT22;10951;59.656;9.666;2023-04-25T08:03:34;2.00;99.90
21580;DHT22;10951;59.656;9.666;2023-04-25T08:06:04;2.10;99.90
21580;DHT22;10951;59.656;9.666;2023-04-25T08:08:41;2.10;99.90
21580;DHT22;10951;59.656;9.666;2023-04-25T08:11:11;2.20;99.90
21580;DHT22;10951;59.656;9.666;2023-04-25T08:13:39;2.20;99.90
21580;DHT22;10951;59.656;9.666;2023-04-25T08:16:06;2.30;99.90
21580;DHT22;10951;59.656;9.666;2023-04-25T08:18:33;2.30;99.90
21580;DHT22;10951;59.656;9.666;2023-04-25T08:21:01;2.30;99.90
21580;DHT22;10951;59.656;9.666;2023-04-25T08:23:27;2.30;99.90
21580;DHT22;10951;59.656;9.666;2023-04-25T08:26:03;2.40;99.90
21580;DHT22;10951;59.656;9.666;2023-04-25T08:28:33;2.40;99.90
21580;DHT22;10951;59.656;9.666;2023-04-25T08:31:01;2.40;99.90
21580;DHT22;10951;59.656;9.666;2023-04-25T08:33:34;2.40;99.90
21580;DHT22;10951;59.656;9.666;2023-04-25T08:36:18;2.30;99.90
21580;DHT22;10951;59.656;9.666;2023-04-25T08:39:03;2.30;99.90
21580;DHT22;10951;59.656;9.666;2023-04-25T08:41:36;2.30;99.90
21580;DHT22;10951;59.656;9.666;2023-04-25T08:44:05;2.30;99.90
21580;DHT22;10951;59.656;9.666;2023-04-25T08:46:34;2.40;99.90
21580;DHT22;10951;59.656;9.666;2023-04-25T08:49:33;2.40;99.90
21580;DHT22;10951;59.656;9.666;2023-04-25T08:52:01;2.30;99.90
21580;DHT22;10951;59.656;9.666;2023-04-25T08:54:29;2.30;99.90
21580;DHT22;10951;59.656;9.666;2023-04-25T08:57:18;2.40;99.90
21580;DHT22;10951;59.656;9.666;2023-04-25T08:59:46;2.50;99.90
21580;DHT22;10951;59.656;9.666;2023-04-25T09:02:13;2.50;99.90
21580;DHT22;10951;59.656;9.666;2023-04-25T09:04:47;2.60;99.90
21580;DHT22;10951;59.656;9.666;2023-04-25T09:07:15;2.60;99.90
21580;DHT22;10951;59.656;9.666;2023-04-25T09:09:45;2.60;99.90
21580;DHT22;10951;59.656;9.666;2023-04-25T09:12:16;2.60;99.90
21580;DHT22;10951;59.656;9.666;2023-04-25T09:14:47;2.70;99.90
21580;DHT22;10951;59.656;9.666;2023-04-25T09:17:41;2.70;99.90
21580;DHT22;10951;59.656;9.666;2023-04-25T09:20:09;2.80;99.90
21580;DHT22;10951;59.656;9.666;2023-04-25T09:22:37;2.80;99.90
21580;DHT22;10951;59.656;9.666;2023-04-25T09:25:08;2.80;99.90
21580;DHT22;10951;59.656;9.666;2023-04-25T09:27:35;2.90;99.90
21580;DHT22;10951;59.656;9.666;2023-04-25T09:30:10;2.90;99.90
21580;DHT22;10951;59.656;9.666;2023-04-25T09:32:50;3.00;99.90
21580;DHT22;10951;59.656;9.666;2023-04-25T09:35:24;3.00;99.90
21580;DHT22;10951;59.656;9.666;2023-04-25T09:37:53;3.00;99.90
21580;DHT22;10951;59.656;9.666;2023-04-25T09:40:40;3.00;99.90
21580;DHT22;10951;59.656;9.666;2023-04-25T09:43:20;3.10;99.90
21580;DHT22;10951;59.656;9.666;2023-04-25T09:45:49;3.10;99.90
21580;DHT22;10951;59.656;9.666;2023-04-25T09:48:19;3.10;99.90
21580;DHT22;10951;59.656;9.666;2023-04-25T09:53:41;3.30;99.90
21580;DHT22;10951;59.656;9.666;2023-04-25T09:56:15;3.40;99.90
21580;DHT22;10951;59.656;9.666;2023-04-25T09:58:42;3.50;99.90
21580;DHT22;10951;59.656;9.666;2023-04-25T10:01:10;3.40;99.90
21580;DHT22;10951;59.656;9.666;2023-04-25T10:03:50;3.40;99.90
21580;DHT22;10951;59.656;9.666;2023-04-25T10:06:38;3.50;99.90
21580;DHT22;10951;59.656;9.666;2023-04-25T10:09:07;3.60;99.90
21580;DHT22;10951;59.656;9.666;2023-04-25T10:11:34;3.70;99.90
21580;DHT22;10951;59.656;9.666;2023-04-25T10:14:02;3.60;99.90
21580;DHT22;10951;59.656;9.666;2023-04-25T10:16:29;3.50;99.90
21580;DHT22;10951;59.656;9.666;2023-04-25T10:18:57;3.60;99.90
21580;DHT22;10951;59.656;9.666;2023-04-25T10:21:24;3.70;99.90
21580;DHT22;10951;59.656;9.666;2023-04-25T10:23:53;3.90;99.90
21580;DHT22;10951;59.656;9.666;2023-04-25T10:26:20;4.00;99.90
21580;DHT22;10951;59.656;9.666;2023-04-25T10:28:55;4.10;99.90
21580;DHT22;10951;59.656;9.666;2023-04-25T10:31:22;4.10;99.90
21580;DHT22;10951;59.656;9.666;2023-04-25T10:33:49;4.00;99.90
21580;DHT22;10951;59.656;9.666;2023-04-25T10:36:22;4.00;99.90
21580;DHT22;10951;59.656;9.666;2023-04-25T10:38:50;3.90;99.90
21580;DHT22;10951;59.656;9.666;2023-04-25T10:41:17;3.80;99.90
21580;DHT22;10951;59.656;9.666;2023-04-25T10:43:45;3.90;99.90
21580;DHT22;10951;59.656;9.666;2023-04-25T10:46:21;4.00;99.90
21580;DHT22;10951;59.656;9.666;2023-04-25T10:48:52;4.00;99.90
21580;DHT22;10951;59.656;9.666;2023-04-25T10:56:23;4.20;99.90
21580;DHT22;10951;59.656;9.666;2023-04-25T10:58:51;4.30;99.90
21580;DHT22;10951;59.656;9.666;2023-04-25T11:01:20;4.30;99.90
21580;DHT22;10951;59.656;9.666;2023-04-25T11:03:47;4.20;99.60
21580;DHT22;10951;59.656;9.666;2023-04-25T11:06:22;4.20;99.60
21580;DHT22;10951;59.656;9.666;2023-04-25T11:08:50;4.30;99.40
21580;DHT22;10951;59.656;9.666;2023-04-25T11:11:17;4.30;99.60
21580;DHT22;10951;59.656;9.666;2023-04-25T11:13:47;4.30;99.10
21580;DHT22;10951;59.656;9.666;2023-04-25T11:16:14;4.40;99.50
21580;DHT22;10951;59.656;9.666;2023-04-25T11:18:53;4.50;99.80
21580;DHT22;10951;59.656;9.666;2023-04-25T11:21:20;4.70;99.20
21580;DHT22;10951;59.656;9.666;2023-04-25T11:23:47;4.70;98.20
21580;DHT22;10951;59.656;9.666;2023-04-25T11:26:14;4.70;98.30
21580;DHT22;10951;59.656;9.666;2023-04-25T11:28:44;4.60;98.40
21580;DHT22;10951;59.656;9.666;2023-04-25T11:31:11;4.50;98.20
21580;DHT22;10951;59.656;9.666;2023-04-25T11:33:38;4.60;97.90
21580;DHT22;10951;59.656;9.666;2023-04-25T11:36:07;4.70;98.30
21580;DHT22;10951;59.656;9.666;2023-04-25T11:38:34;4.90;97.80
21580;DHT22;10951;59.656;9.666;2023-04-25T11:41:01;4.90;97.60
21580;DHT22;10951;59.656;9.666;2023-04-25T11:43:28;5.10;97.80
21580;DHT22;10951;59.656;9.666;2023-04-25T11:45:55;5.40;96.50
21580;DHT22;10951;59.656;9.666;2023-04-25T11:48:22;5.50;95.90
21580;DHT22;10951;59.656;9.666;2023-04-25T11:50:53;5.50;96.20
21580;DHT22;10951;59.656;9.666;2023-04-25T11:53:20;5.50;95.10
21580;DHT22;10951;59.656;9.666;2023-04-25T11:55:47;5.40;94.70
21580;DHT22;10951;59.656;9.666;2023-04-25T11:58:14;5.50;94.90
21580;DHT22;10951;59.656;9.666;2023-04-25T12:00:41;5.60;94.70
21580;DHT22;10951;59.656;9.666;2023-04-25T12:03:17;5.60;95.30
21580;DHT22;10951;59.656;9.666;2023-04-25T12:05:45;5.50;95.20
21580;DHT22;10951;59.656;9.666;2023-04-25T12:08:13;5.40;95.40
21580;DHT22;10951;59.656;9.666;2023-04-25T12:10:45;5.30;95.20
21580;DHT22;10951;59.656;9.666;2023-04-25T12:13:22;5.30;95.20
21580;DHT22;10951;59.656;9.666;2023-04-25T12:15:49;5.30;95.90
21580;DHT22;10951;59.656;9.666;2023-04-25T12:18:20;5.30;95.80
21580;DHT22;10951;59.656;9.666;2023-04-25T12:20:47;5.40;95.40
21580;DHT22;10951;59.656;9.666;2023-04-25T12:23:14;5.30;95.20
21580;DHT22;10951;59.656;9.666;2023-04-25T12:25:42;5.40;95.10
21580;DHT22;10951;59.656;9.666;2023-04-25T12:30:59;5.60;95.20
21580;DHT22;10951;59.656;9.666;2023-04-25T12:33:28;5.70;95.20
21580;DHT22;10951;59.656;9.666;2023-04-25T12:35:56;5.90;95.10
21580;DHT22;10951;59.656;9.666;2023-04-25T12:38:30;6.00;95.00
21580;DHT22;10951;59.656;9.666;2023-04-25T12:40:58;6.00;94.40
21580;DHT22;10951;59.656;9.666;2023-04-25T12:43:25;5.80;93.00
21580;DHT22;10951;59.656;9.666;2023-04-25T12:45:52;5.60;93.70
21580;DHT22;10951;59.656;9.666;2023-04-25T12:48:20;5.60;94.30
21580;DHT22;10951;59.656;9.666;2023-04-25T12:50:47;5.50;93.80
21580;DHT22;10951;59.656;9.666;2023-04-25T12:53:21;5.50;94.10
21580;DHT22;10951;59.656;9.666;2023-04-25T12:55:48;5.40;94.60
21580;DHT22;10951;59.656;9.666;2023-04-25T12:58:16;5.30;94.40
21580;DHT22;10951;59.656;9.666;2023-04-25T13:00:44;5.30;94.60
21580;DHT22;10951;59.656;9.666;2023-04-25T13:03:11;5.40;94.40
21580;DHT22;10951;59.656;9.666;2023-04-25T13:05:39;5.50;94.80
21580;DHT22;10951;59.656;9.666;2023-04-25T13:08:06;5.60;94.90
21580;DHT22;10951;59.656;9.666;2023-04-25T13:10:33;5.30;94.80
21580;DHT22;10951;59.656;9.666;2023-04-25T13:13:00;5.20;95.50
21580;DHT22;10951;59.656;9.666;2023-04-25T13:15:28;5.10;95.80
21580;DHT22;10951;59.656;9.666;2023-04-25T13:17:55;5.20;96.00
21580;DHT22;10951;59.656;9.666;2023-04-25T13:20:22;5.20;95.60
21580;DHT22;10951;59.656;9.666;2023-04-25T13:22:49;5.10;95.60
21580;DHT22;10951;59.656;9.666;2023-04-25T13:25:16;5.00;96.30
21580;DHT22;10951;59.656;9.666;2023-04-25T13:27:43;5.10;96.90
21580;DHT22;10951;59.656;9.666;2023-04-25T13:30:11;5.10;96.90
21580;DHT22;10951;59.656;9.666;2023-04-25T13:32:38;5.20;97.20
21580;DHT22;10951;59.656;9.666;2023-04-25T13:35:10;5.10;96.60
21580;DHT22;10951;59.656;9.666;2023-04-25T13:37:37;5.00;96.90
21580;DHT22;10951;59.656;9.666;2023-04-25T13:40:05;5.00;97.00
21580;DHT22;10951;59.656;9.666;2023-04-25T13:42:32;5.00;97.20
21580;DHT22;10951;59.656;9.666;2023-04-25T13:44:59;5.10;96.90
21580;DHT22;10951;59.656;9.666;2023-04-25T13:47:26;5.10;96.70
21580;DHT22;10951;59.656;9.666;2023-04-25T13:49:54;5.20;97.00
21580;DHT22;10951;59.656;9.666;2023-04-25T13:52:21;5.20;97.00
21580;DHT22;10951;59.656;9.666;2023-04-25T13:54:48;5.30;96.70
21580;DHT22;10951;59.656;9.666;2023-04-25T13:57:14;5.40;96.30
21580;DHT22;10951;59.656;9.666;2023-04-25T13:59:41;5.30;95.60
21580;DHT22;10951;59.656;9.666;2023-04-25T14:02:09;5.40;95.40
21580;DHT22;10951;59.656;9.666;2023-04-25T14:04:36;5.50;94.90
21580;DHT22;10951;59.656;9.666;2023-04-25T14:07:03;5.60;95.30
21580;DHT22;10951;59.656;9.666;2023-04-25T14:09:30;5.60;95.20
21580;DHT22;10951;59.656;9.666;2023-04-25T14:11:57;5.60;94.70
21580;DHT22;10951;59.656;9.666;2023-04-25T14:14:24;5.50;94.10
21580;DHT22;10951;59.656;9.666;2023-04-25T14:16:51;5.30;94.40
21580;DHT22;10951;59.656;9.666;2023-04-25T14:19:20;5.20;94.20
21580;DHT22;10951;59.656;9.666;2023-04-25T14:21:48;5.10;94.20
21580;DHT22;10951;59.656;9.666;2023-04-25T14:24:15;5.10;94.50
21580;DHT22;10951;59.656;9.666;2023-04-25T14:26:42;5.10;94.90
21580;DHT22;10951;59.656;9.666;2023-04-25T14:29:09;5.10;95.10
21580;DHT22;10951;59.656;9.666;2023-04-25T14:31:39;5.10;94.60
21580;DHT22;10951;59.656;9.666;2023-04-25T14:34:07;5.20;94.80
21580;DHT22;10951;59.656;9.666;2023-04-25T14:36:35;5.20;95.20
21580;DHT22;10951;59.656;9.666;2023-04-25T14:39:02;5.30;94.90
21580;DHT22;10951;59.656;9.666;2023-04-25T14:41:29;5.40;94.90
21580;DHT22;10951;59.656;9.666;2023-04-25T14:43:56;5.30;94.20
21580;DHT22;10951;59.656;9.666;2023-04-25T14:46:23;5.30;94.70
21580;DHT22;10951;59.656;9.666;2023-04-25T14:48:50;5.30;94.20
21580;DHT22;10951;59.656;9.666;2023-04-25T14:51:17;5.30;93.80
21580;DHT22;10951;59.656;9.666;2023-04-25T14:53:44;5.20;93.70
21580;DHT22;10951;59.656;9.666;2023-04-25T14:56:11;5.20;94.00
21580;DHT22;10951;59.656;9.666;2023-04-25T14:58:39;5.10;94.50
21580;DHT22;10951;59.656;9.666;2023-04-25T15:01:06;5.20;94.50
21580;DHT22;10951;59.656;9.666;2023-04-25T15:03:33;5.20;94.40
21580;DHT22;10951;59.656;9.666;2023-04-25T15:06:00;5.20;94.50
21580;DHT22;10951;59.656;9.666;2023-04-25T15:08:27;5.30;94.50
21580;DHT22;10951;59.656;9.666;2023-04-25T15:10:54;5.30;93.80
21580;DHT22;10951;59.656;9.666;2023-04-25T15:13:21;5.30;94.10
21580;DHT22;10951;59.656;9.666;2023-04-25T15:15:48;5.20;94.20
21580;DHT22;10951;59.656;9.666;2023-04-25T15:18:19;5.20;94.80
21580;DHT22;10951;59.656;9.666;2023-04-25T15:20:49;5.20;94.80
21580;DHT22;10951;59.656;9.666;2023-04-25T15:23:16;5.20;94.60
21580;DHT22;10951;59.656;9.666;2023-04-25T15:25:43;5.20;94.60
21580;DHT22;10951;59.656;9.666;2023-04-25T15:28:10;5.20;94.30
21580;DHT22;10951;59.656;9.666;2023-04-25T15:30:37;5.20;94.80
21580;DHT22;10951;59.656;9.666;2023-04-25T15:33:04;5.20;94.90
21580;DHT22;10951;59.656;9.666;2023-04-25T15:35:31;5.20;95.00
21580;DHT22;10951;59.656;9.666;2023-04-25T15:37:57;5.30;95.20
21580;DHT22;10951;59.656;9.666;2023-04-25T15:40:24;5.40;94.90
21580;DHT22;10951;59.656;9.666;2023-04-25T15:42:51;5.50;94.80
21580;DHT22;10951;59.656;9.666;2023-04-25T15:45:20;5.50;94.00
21580;DHT22;10951;59.656;9.666;2023-04-25T15:47:48;5.40;94.20
21580;DHT22;10951;59.656;9.666;2023-04-25T15:50:17;5.40;94.30
21580;DHT22;10951;59.656;9.666;2023-04-25T15:52:44;5.30;94.30
21580;DHT22;10951;59.656;9.666;2023-04-25T15:55:11;5.30;94.60
21580;DHT22;10951;59.656;9.666;2023-04-25T15:57:42;5.20;94.80
21580;DHT22;10951;59.656;9.666;2023-04-25T16:00:09;5.20;94.60
21580;DHT22;10951;59.656;9.666;2023-04-25T16:02:41;5.10;94.70
21580;DHT22;10951;59.656;9.666;2023-04-25T16:05:08;5.20;95.10
21580;DHT22;10951;59.656;9.666;2023-04-25T16:07:37;5.10;95.20
21580;DHT22;10951;59.656;9.666;2023-04-25T16:10:04;5.10;95.10
21580;DHT22;10951;59.656;9.666;2023-04-25T16:12:32;5.10;95.30
21580;DHT22;10951;59.656;9.666;2023-04-25T16:14:58;5.10;95.40